Time;durP1;ratioP1;P1;durP2;ratioP2;P2;SDS_P1;SDS_P2;PMS_P1;PMS_P2;Temp;Humidity;BMP_temperature;BMP_pressure;BME280_temperature;BME280_humidity;BME280_pressure;Samples;Min_cycle;Max_cycle;Signal;HPM_P1;HPM_P2
2023/05/04 00:01:50;;;;;;;4.27;1.60;;;12.20;66.90;;;;;;5031258;28;20300;-76
2023/05/04 00:04:16;;;;;;;3.65;1.95;;;12.20;67.20;;;;;;5032170;28;20605;-76
2023/05/04 00:06:44;;;;;;;1.90;1.17;;;12.20;66.90;;;;;;5032311;28;20174;-76
2023/05/04 00:09:12;;;;;;;2.10;0.90;;;12.20;67.30;;;;;;5030712;28;20274;-76
2023/05/04 00:11:38;;;;;;;3.05;0.95;;;12.30;67.50;;;;;;5031115;28;20268;-76
2023/05/04 00:14:04;;;;;;;3.10;1.15;;;12.30;67.10;;;;;;5032361;28;20225;-76
2023/05/04 00:16:29;;;;;;;1.60;1.00;;;12.40;67.30;;;;;;5031660;28;20173;-76
2023/05/04 00:18:55;;;;;;;3.27;1.20;;;12.40;67.00;;;;;;5032054;28;20569;-77
2023/05/04 00:21:21;;;;;;;2.77;1.20;;;12.50;67.50;;;;;;5031208;28;20668;-77
2023/05/04 00:23:46;;;;;;;2.67;1.30;;;12.50;67.30;;;;;;5030284;28;20689;-76
2023/05/04 00:26:12;;;;;;;2.90;1.30;;;12.60;67.20;;;;;;5029808;28;20533;-76
2023/05/04 00:28:39;;;;;;;3.33;1.30;;;12.60;67.80;;;;;;5030744;28;20209;-76
2023/05/04 00:31:05;;;;;;;2.83;1.10;;;12.70;67.10;;;;;;5013937;28;20577;-76
2023/05/04 00:33:30;;;;;;;2.60;1.10;;;12.70;67.20;;;;;;5014269;28;20181;-76
2023/05/04 00:35:56;;;;;;;2.27;1.00;;;12.70;67.00;;;;;;5030427;28;20181;-76
2023/05/04 00:38:22;;;;;;;1.97;0.97;;;12.70;67.10;;;;;;5013831;28;20181;-76
2023/05/04 00:40:48;;;;;;;4.27;1.20;;;12.80;66.90;;;;;;5031965;28;20189;-75
2023/05/04 00:43:14;;;;;;;1.73;1.02;;;12.80;66.80;;;;;;5030188;28;20283;-76
2023/05/04 00:45:40;;;;;;;1.97;0.90;;;12.80;66.70;;;;;;4997849;28;20212;-76
2023/05/04 00:48:06;;;;;;;2.00;1.15;;;12.90;66.80;;;;;;5031402;28;20205;-75
2023/05/04 00:50:33;;;;;;;2.85;1.10;;;12.90;67.00;;;;;;5013033;28;20555;-76
2023/05/04 00:53:04;;;;;;;3.58;0.90;;;12.90;66.60;;;;;;5029741;28;20177;-75
2023/05/04 00:55:31;;;;;;;3.35;1.30;;;12.90;66.70;;;;;;5030579;28;20256;-75
2023/05/04 00:57:56;;;;;;;2.25;1.30;;;12.90;66.70;;;;;;5013452;28;20575;-81
2023/05/04 01:00:22;;;;;;;2.43;1.13;;;12.90;66.60;;;;;;5031621;28;20237;-81
2023/05/04 01:02:49;;;;;;;1.77;0.80;;;12.80;66.50;;;;;;5013276;28;20213;-81
2023/05/04 01:05:41;;;;;;;2.15;1.10;;;12.80;66.50;;;;;;5030160;28;20174;-80
2023/05/04 01:08:13;;;;;;;1.60;0.82;;;12.90;66.70;;;;;;5030594;28;20169;-80
2023/05/04 01:10:50;;;;;;;4.63;0.98;;;12.80;66.70;;;;;;5029700;28;20189;-80
2023/05/04 01:13:20;;;;;;;2.92;1.00;;;12.80;66.90;;;;;;5011544;28;20238;-79
2023/05/04 01:15:47;;;;;;;2.22;0.90;;;12.70;66.80;;;;;;4996770;28;20169;-80
2023/05/04 01:18:13;;;;;;;2.30;1.25;;;12.70;66.90;;;;;;5029954;28;20649;-80
2023/05/04 01:20:39;;;;;;;2.53;0.80;;;12.70;66.90;;;;;;5012756;28;20202;-80
2023/05/04 01:23:04;;;;;;;2.87;1.13;;;12.70;67.00;;;;;;5012869;28;20205;-80
2023/05/04 01:25:41;;;;;;;2.43;1.27;;;12.60;67.30;;;;;;5029287;28;20623;-80
2023/05/04 01:28:16;;;;;;;4.22;1.02;;;12.60;67.50;;;;;;5013448;28;20663;-80
2023/05/04 01:30:43;;;;;;;2.92;1.30;;;12.60;67.50;;;;;;5013263;28;20188;-80
2023/05/04 01:33:10;;;;;;;2.72;0.88;;;12.60;68.20;;;;;;5029578;28;20181;-80
2023/05/04 01:35:36;;;;;;;2.85;1.10;;;12.60;67.90;;;;;;5029613;28;20549;-80
2023/05/04 01:38:03;;;;;;;1.70;0.97;;;12.60;68.30;;;;;;5029742;28;20185;-80
2023/05/04 01:40:28;;;;;;;2.22;1.00;;;12.60;68.20;;;;;;5030190;28;20197;-80
2023/05/04 01:42:55;;;;;;;2.67;1.35;;;12.50;69.40;;;;;;5012996;28;20201;-80
2023/05/04 01:45:21;;;;;;;2.27;1.10;;;12.50;68.90;;;;;;5029993;28;20196;-79
2023/05/04 01:47:47;;;;;;;2.50;0.90;;;12.50;69.20;;;;;;5012572;28;20181;-80
2023/05/04 01:50:13;;;;;;;2.42;1.10;;;12.50;69.20;;;;;;5031172;28;20276;-80
2023/05/04 01:52:38;;;;;;;1.80;0.80;;;12.50;69.20;;;;;;5029515;28;20207;-80
2023/05/04 01:55:04;;;;;;;2.23;0.97;;;12.50;69.10;;;;;;5029524;28;20584;-80
2023/05/04 01:57:31;;;;;;;1.98;0.80;;;12.50;69.30;;;;;;5029606;28;20324;-80
2023/05/04 01:59:57;;;;;;;3.40;1.00;;;12.50;69.40;;;;;;5013087;28;20252;-80
2023/05/04 02:02:23;;;;;;;2.17;0.80;;;12.50;69.50;;;;;;5030954;28;20201;-80
2023/05/04 02:04:50;;;;;;;4.50;1.30;;;12.50;69.70;;;;;;5029442;28;20235;-80
2023/05/04 02:07:15;;;;;;;2.27;0.90;;;12.50;69.60;;;;;;5012930;28;20182;-80
2023/05/04 02:09:41;;;;;;;2.23;0.90;;;12.50;69.60;;;;;;5029209;28;20615;-81
2023/05/04 02:12:07;;;;;;;2.23;1.00;;;12.50;69.60;;;;;;5013022;28;20595;-81
2023/05/04 02:14:33;;;;;;;2.03;1.00;;;12.40;69.90;;;;;;5028841;28;20581;-81
2023/05/04 02:16:59;;;;;;;3.03;0.93;;;12.40;69.80;;;;;;5030539;28;20646;-81
2023/05/04 02:19:24;;;;;;;2.93;1.03;;;12.40;69.90;;;;;;5033188;28;20755;-80
2023/05/04 02:21:51;;;;;;;2.60;1.00;;;12.40;69.90;;;;;;5032199;28;20228;-81
2023/05/04 02:24:17;;;;;;;1.63;0.93;;;12.40;70.00;;;;;;5049153;28;20171;-81
2023/05/04 02:26:43;;;;;;;2.70;1.50;;;12.40;70.10;;;;;;5048760;28;20268;-80
2023/05/04 02:29:08;;;;;;;3.13;1.33;;;12.40;70.00;;;;;;5031911;28;20619;-81
2023/05/04 02:31:34;;;;;;;3.93;1.07;;;12.30;70.00;;;;;;5028665;28;20269;-81
2023/05/04 02:34:01;;;;;;;2.60;0.87;;;12.30;70.10;;;;;;5012932;28;20174;-81
2023/05/04 02:36:26;;;;;;;2.67;1.00;;;12.30;70.20;;;;;;5028725;28;20526;-80
2023/05/04 02:38:54;;;;;;;2.03;0.90;;;12.30;70.30;;;;;;5030430;28;20327;-80
2023/05/04 02:41:19;;;;;;;2.20;1.35;;;12.20;70.30;;;;;;5012786;28;20623;-80
2023/05/04 02:43:45;;;;;;;2.90;1.30;;;12.20;71.50;;;;;;5012363;28;20594;-80
2023/05/04 02:46:11;;;;;;;3.50;1.50;;;12.20;71.20;;;;;;5012484;28;20667;-80
2023/05/04 02:48:37;;;;;;;4.23;1.10;;;12.10;71.20;;;;;;5031299;28;20174;-80
2023/05/04 02:51:03;;;;;;;2.90;1.13;;;12.10;71.70;;;;;;5016341;28;20268;-80
2023/05/04 02:53:28;;;;;;;2.10;1.40;;;12.10;72.20;;;;;;5032217;28;20186;-80
2023/05/04 02:55:54;;;;;;;2.27;1.23;;;12.00;72.50;;;;;;5032718;28;21159;-80
2023/05/04 02:58:20;;;;;;;1.60;1.13;;;12.00;72.40;;;;;;5015844;28;20182;-80
2023/05/04 03:00:45;;;;;;;1.70;0.90;;;12.00;72.50;;;;;;5033860;28;20208;-79
2023/05/04 03:03:11;;;;;;;2.67;1.13;;;12.00;72.70;;;;;;5032569;28;20209;-80
2023/05/04 03:05:37;;;;;;;1.90;1.20;;;12.00;73.00;;;;;;5032024;28;20201;-80
2023/05/04 03:08:03;;;;;;;4.13;2.00;;;11.90;72.80;;;;;;5032614;28;20583;-80
2023/05/04 03:10:28;;;;;;;4.40;1.07;;;11.90;73.10;;;;;;5015410;28;20194;-80
2023/05/04 03:12:54;;;;;;;1.70;1.20;;;11.90;73.30;;;;;;5015784;28;20580;-81
2023/05/04 03:15:20;;;;;;;3.00;1.50;;;11.90;73.40;;;;;;5031945;28;20174;-80
2023/05/04 03:17:46;;;;;;;1.90;1.10;;;11.90;73.50;;;;;;5037669;28;20206;-80
2023/05/04 03:20:12;;;;;;;2.80;1.60;;;11.90;74.10;;;;;;5033765;28;21083;-80
2023/05/04 03:22:39;;;;;;;2.95;1.20;;;11.90;74.00;;;;;;5015570;28;20636;-80
2023/05/04 03:25:06;;;;;;;3.80;1.10;;;11.80;75.00;;;;;;5032333;28;20232;-80
2023/05/04 03:27:32;;;;;;;6.38;1.20;;;11.80;74.60;;;;;;5014972;28;20596;-81
2023/05/04 03:29:57;;;;;;;1.90;1.10;;;11.80;74.50;;;;;;5032103;28;20594;-81
2023/05/04 03:32:25;;;;;;;2.67;1.10;;;11.80;75.40;;;;;;5016738;28;20177;-79
2023/05/04 03:34:51;;;;;;;3.38;1.05;;;11.80;75.00;;;;;;5032173;28;20192;-79
2023/05/04 03:37:17;;;;;;;2.20;1.35;;;11.70;74.90;;;;;;5014613;28;20626;-79
2023/05/04 03:39:43;;;;;;;2.20;1.20;;;11.70;75.10;;;;;;5032036;28;20209;-79
2023/05/04 03:42:09;;;;;;;4.13;0.90;;;11.70;75.30;;;;;;5014546;28;20701;-79
2023/05/04 03:44:34;;;;;;;2.80;1.10;;;11.70;76.60;;;;;;5015222;28;20174;-79
2023/05/04 03:47:00;;;;;;;5.07;1.10;;;11.70;76.30;;;;;;5031261;28;20212;-80
2023/05/04 03:49:26;;;;;;;3.60;1.52;;;11.70;76.00;;;;;;5014690;28;20189;-80
2023/05/04 03:51:52;;;;;;;2.87;1.30;;;11.60;76.20;;;;;;5031111;28;20181;-80
2023/05/04 03:54:18;;;;;;;5.50;1.10;;;11.60;76.40;;;;;;5014721;28;20683;-81
2023/05/04 03:56:44;;;;;;;6.77;1.20;;;11.60;76.60;;;;;;5014874;28;20584;-80
2023/05/04 03:59:11;;;;;;;2.15;1.10;;;11.60;76.70;;;;;;5014016;28;20197;-80
2023/05/04 04:01:38;;;;;;;6.25;1.20;;;11.60;76.80;;;;;;5014570;28;20194;-82
2023/05/04 04:04:04;;;;;;;2.60;1.20;;;11.60;76.90;;;;;;5031418;28;20169;-80
2023/05/04 04:06:30;;;;;;;2.15;1.25;;;11.60;77.10;;;;;;5031528;28;20536;-80
2023/05/04 04:08:56;;;;;;;2.45;1.10;;;11.60;77.70;;;;;;5047398;28;20197;-80
2023/05/04 04:11:22;;;;;;;5.63;1.33;;;11.60;78.00;;;;;;5031920;28;20840;-79
2023/05/04 04:13:48;;;;;;;3.50;1.40;;;11.50;78.60;;;;;;5035957;28;20188;-79
2023/05/04 04:16:14;;;;;;;2.13;0.95;;;11.50;78.20;;;;;;5040894;28;20183;-79
2023/05/04 04:18:40;;;;;;;3.55;1.00;;;11.60;78.50;;;;;;5049749;28;20275;-78
2023/05/04 04:21:06;;;;;;;2.57;1.20;;;11.60;78.60;;;;;;5051191;28;20252;-79
2023/05/04 04:23:32;;;;;;;4.43;1.03;;;11.60;78.80;;;;;;5033202;28;20201;-79
2023/05/04 04:25:57;;;;;;;4.87;1.50;;;11.60;78.80;;;;;;5031470;28;20170;-79
2023/05/04 04:28:23;;;;;;;2.27;1.40;;;11.60;79.40;;;;;;5032372;28;20170;-79
2023/05/04 04:30:48;;;;;;;1.97;1.10;;;11.60;79.30;;;;;;5030495;28;20565;-79
2023/05/04 04:33:15;;;;;;;2.30;1.15;;;11.70;79.50;;;;;;5031876;28;20211;-79
2023/05/04 04:35:41;;;;;;;2.28;1.10;;;11.70;79.60;;;;;;5031972;28;20192;-79
2023/05/04 04:38:08;;;;;;;2.63;1.23;;;11.70;80.10;;;;;;5030458;28;20563;-78
2023/05/04 04:40:33;;;;;;;2.58;1.20;;;11.70;80.00;;;;;;5031940;28;20604;-79
2023/05/04 04:42:59;;;;;;;3.60;1.60;;;11.70;80.20;;;;;;5030055;28;20751;-78
2023/05/04 04:45:25;;;;;;;4.60;1.40;;;11.80;80.60;;;;;;5032197;28;20592;-78
2023/05/04 04:47:50;;;;;;;3.03;1.20;;;11.80;80.50;;;;;;5030966;28;20169;-79
2023/05/04 04:50:17;;;;;;;3.70;1.70;;;11.80;81.40;;;;;;5031725;28;20631;-79
2023/05/04 04:52:42;;;;;;;2.92;1.13;;;11.80;81.10;;;;;;5031338;28;20268;-79
2023/05/04 04:55:08;;;;;;;4.03;2.03;;;11.90;81.60;;;;;;5031811;28;20654;-79
2023/05/04 04:57:34;;;;;;;2.00;1.20;;;11.90;82.20;;;;;;5031459;28;20883;-79
2023/05/04 05:00:00;;;;;;;2.00;1.20;;;12.00;82.60;;;;;;5031080;28;20281;-78
2023/05/04 05:02:27;;;;;;;4.60;1.50;;;12.00;82.60;;;;;;5031491;28;20205;-78
2023/05/04 05:04:53;;;;;;;5.05;1.75;;;12.00;82.60;;;;;;5031009;28;20587;-78
2023/05/04 05:07:19;;;;;;;3.25;1.58;;;12.10;82.50;;;;;;5031170;28;20554;-78
2023/05/04 05:09:45;;;;;;;3.37;1.37;;;12.20;82.60;;;;;;5030160;28;20205;-78
2023/05/04 05:12:11;;;;;;;5.28;1.50;;;12.20;82.60;;;;;;5044579;28;20571;-79
2023/05/04 05:14:36;;;;;;;3.10;1.30;;;12.30;83.40;;;;;;5029564;28;20646;-79
2023/05/04 05:17:05;;;;;;;2.90;1.60;;;12.40;83.00;;;;;;5030118;28;20651;-79
2023/05/04 05:19:35;;;;;;;2.40;1.15;;;12.40;83.00;;;;;;5030900;28;20750;-79
2023/05/04 05:22:02;;;;;;;3.50;1.40;;;12.50;83.10;;;;;;5029608;28;20202;-78
2023/05/04 05:24:27;;;;;;;3.33;1.63;;;12.60;83.40;;;;;;5030303;28;20174;-79
2023/05/04 05:26:53;;;;;;;2.57;1.30;;;12.60;83.70;;;;;;5030363;28;20169;-79
2023/05/04 05:29:19;;;;;;;3.00;1.40;;;12.70;84.20;;;;;;5030636;28;20220;-80
2023/05/04 05:31:45;;;;;;;3.63;1.33;;;12.80;84.40;;;;;;5030697;28;20771;-79
2023/05/04 05:34:11;;;;;;;6.18;1.42;;;12.90;84.70;;;;;;5031270;28;20177;-79
2023/05/04 05:36:37;;;;;;;2.20;1.30;;;13.10;84.70;;;;;;5029523;28;20179;-81
2023/05/04 05:39:03;;;;;;;6.18;1.50;;;13.30;85.10;;;;;;5029820;28;21199;-80
2023/05/04 05:41:29;;;;;;;3.00;1.50;;;13.50;84.90;;;;;;5029156;28;20177;-81
2023/05/04 05:43:55;;;;;;;4.80;1.93;;;13.60;84.60;;;;;;5029710;28;20510;-81
2023/05/04 05:46:21;;;;;;;6.43;1.83;;;13.70;84.40;;;;;;5030330;28;20587;-81
2023/05/04 05:48:47;;;;;;;4.47;1.50;;;14.00;84.50;;;;;;5028867;28;20220;-81
2023/05/04 05:51:13;;;;;;;2.77;1.70;;;14.30;84.40;;;;;;5029171;28;20174;-81
2023/05/04 05:53:39;;;;;;;5.60;1.67;;;14.80;85.50;;;;;;5031072;28;20611;-81
2023/05/04 05:56:04;;;;;;;4.13;1.40;;;15.40;86.10;;;;;;5028609;28;20780;-81
2023/05/04 05:58:30;;;;;;;2.77;1.20;;;16.00;86.00;;;;;;5012524;28;20170;-80
2023/05/04 06:00:57;;;;;;;4.37;2.07;;;16.50;84.60;;;;;;5024874;28;20688;-80
2023/05/04 06:03:22;;;;;;;3.90;1.70;;;16.70;80.40;;;;;;5031693;28;20640;-80
2023/05/04 06:05:48;;;;;;;3.83;2.10;;;16.70;79.00;;;;;;5042485;28;20581;-81
2023/05/04 06:08:14;;;;;;;2.60;1.63;;;16.60;76.80;;;;;;5041344;28;20231;-81
2023/05/04 06:10:39;;;;;;;5.13;1.67;;;16.70;77.80;;;;;;5050477;28;20189;-82
2023/05/04 06:13:05;;;;;;;4.17;1.77;;;16.90;78.50;;;;;;5049223;28;20660;-81
2023/05/04 06:15:31;;;;;;;4.30;1.50;;;17.10;78.10;;;;;;5049496;28;20219;-82
2023/05/04 06:17:56;;;;;;;4.10;1.80;;;17.40;77.80;;;;;;5050690;28;20204;-82
2023/05/04 06:20:22;;;;;;;3.27;1.30;;;17.60;76.90;;;;;;5048854;28;20215;-81
2023/05/04 06:22:48;;;;;;;3.33;1.43;;;17.70;76.70;;;;;;5033097;28;20212;-81
2023/05/04 06:25:13;;;;;;;2.87;1.40;;;18.00;77.40;;;;;;5034413;28;20181;-82
2023/05/04 06:27:40;;;;;;;2.93;1.43;;;18.40;77.30;;;;;;5033260;28;20207;-82
2023/05/04 06:30:06;;;;;;;2.40;1.20;;;18.70;77.40;;;;;;5032953;28;21206;-82
2023/05/04 06:32:32;;;;;;;3.93;1.47;;;19.00;77.10;;;;;;5034647;28;20181;-82
2023/05/04 06:34:58;;;;;;;2.47;1.47;;;19.30;76.10;;;;;;5033495;28;20580;-82
2023/05/04 06:37:25;;;;;;;5.50;1.50;;;19.50;72.00;;;;;;5034469;28;20178;-82
2023/05/04 06:39:50;;;;;;;4.10;1.70;;;19.60;70.50;;;;;;5033253;28;20619;-82
2023/05/04 06:42:16;;;;;;;6.00;1.57;;;19.80;70.30;;;;;;5032625;28;20632;-82
2023/05/04 06:44:42;;;;;;;3.23;1.57;;;20.00;71.20;;;;;;5016691;28;20221;-82
2023/05/04 06:47:07;;;;;;;6.37;1.50;;;20.30;72.00;;;;;;5033723;28;20162;-75
2023/05/04 06:49:33;;;;;;;3.47;1.60;;;20.80;72.60;;;;;;5034174;28;20190;-74
2023/05/04 06:51:59;;;;;;;2.37;0.90;;;21.30;72.60;;;;;;5033585;28;20627;-74
2023/05/04 06:54:27;;;;;;;2.07;1.10;;;21.70;72.50;;;;;;5032957;28;20559;-74
2023/05/04 06:56:52;;;;;;;4.93;1.20;;;22.20;71.60;;;;;;5032379;28;20626;-74
2023/05/04 06:59:19;;;;;;;2.13;1.00;;;22.60;70.10;;;;;;5033756;28;20668;-74
2023/05/04 07:01:48;;;;;;;1.90;1.00;;;23.00;69.50;;;;;;5021478;28;20211;-74
2023/05/04 07:04:22;;;;;;;3.00;1.17;;;23.40;68.60;;;;;;5031932;28;20625;-74
2023/05/04 07:06:51;;;;;;;3.93;1.30;;;23.30;64.30;;;;;;5042315;28;20591;-75
2023/05/04 07:09:18;;;;;;;3.10;1.20;;;23.40;62.60;;;;;;5043486;28;20664;-74
2023/05/04 07:11:44;;;;;;;4.10;1.17;;;23.40;60.90;;;;;;5049271;28;20600;-74
2023/05/04 07:14:11;;;;;;;4.53;1.13;;;23.40;61.00;;;;;;5043214;28;20595;-74
2023/05/04 07:16:36;;;;;;;3.33;1.00;;;23.30;59.30;;;;;;5053385;28;20583;-82
2023/05/04 07:19:03;;;;;;;3.27;1.20;;;23.30;57.90;;;;;;5050094;28;20274;-82
2023/05/04 07:21:29;;;;;;;2.30;1.87;;;23.40;58.40;;;;;;5035946;28;20181;-82
2023/05/04 07:23:55;;;;;;;5.37;1.00;;;23.10;56.60;;;;;;5033614;28;20592;-82
2023/05/04 07:26:21;;;;;;;3.17;1.10;;;23.00;57.00;;;;;;5031598;28;20586;-82
2023/05/04 07:28:47;;;;;;;2.00;0.90;;;23.10;58.40;;;;;;5032096;28;20181;-82
2023/05/04 07:31:14;;;;;;;1.93;1.20;;;23.40;58.90;;;;;;5032821;28;20580;-82
2023/05/04 07:33:40;;;;;;;1.87;1.00;;;23.60;57.90;;;;;;5031691;28;20232;-82
2023/05/04 07:36:06;;;;;;;3.20;1.17;;;23.60;57.70;;;;;;5031275;28;20980;-82
2023/05/04 07:38:32;;;;;;;2.53;1.30;;;23.60;57.50;;;;;;5032040;28;20606;-82
2023/05/04 07:40:58;;;;;;;3.67;1.30;;;23.80;57.50;;;;;;5032833;28;20564;-82
2023/05/04 07:43:24;;;;;;;2.10;1.30;;;24.20;57.60;;;;;;5031799;28;20205;-83
2023/05/04 07:45:52;;;;;;;3.07;1.47;;;24.30;56.40;;;;;;5031662;28;20635;-82
2023/05/04 07:48:18;;;;;;;2.87;1.53;;;24.20;54.30;;;;;;5031875;28;20244;-82
2023/05/04 07:50:44;;;;;;;5.57;1.50;;;24.20;54.10;;;;;;5032982;28;20655;-83
2023/05/04 07:53:09;;;;;;;3.20;1.53;;;24.30;54.70;;;;;;5032634;28;20592;-82
2023/05/04 07:55:35;;;;;;;2.27;1.10;;;24.70;55.50;;;;;;5031686;28;20184;-82
2023/05/04 07:58:01;;;;;;;4.03;1.30;;;25.10;55.90;;;;;;5031150;28;20174;-81
2023/05/04 08:00:27;;;;;;;3.07;1.40;;;25.40;55.40;;;;;;5043722;28;20623;-82
2023/05/04 08:02:53;;;;;;;2.33;1.23;;;25.50;54.50;;;;;;5052307;28;20993;-82
2023/05/04 08:05:18;;;;;;;5.03;1.30;;;25.40;53.80;;;;;;5051561;28;20250;-82
2023/05/04 08:07:45;;;;;;;2.90;1.20;;;25.70;53.80;;;;;;5051009;28;20236;-82
2023/05/04 08:10:11;;;;;;;2.07;1.13;;;25.80;52.70;;;;;;5052741;28;20203;-82
2023/05/04 08:12:38;;;;;;;5.90;1.50;;;26.10;53.80;;;;;;5052961;28;20585;-82
2023/05/04 08:15:05;;;;;;;4.83;1.03;;;26.40;52.90;;;;;;5034360;28;20184;-83
2023/05/04 08:17:30;;;;;;;5.60;1.33;;;26.90;53.80;;;;;;5051408;28;20598;-82
2023/05/04 08:19:56;;;;;;;4.43;1.50;;;27.20;52.70;;;;;;5052249;28;20607;-83
2023/05/04 08:22:22;;;;;;;3.67;1.50;;;27.40;51.90;;;;;;5042955;28;20201;-83
2023/05/04 08:24:48;;;;;;;1.93;1.20;;;27.40;50.80;;;;;;5031206;28;20204;-83
2023/05/04 08:27:14;;;;;;;2.63;1.50;;;27.50;50.50;;;;;;5031334;28;20613;-82
2023/05/04 08:29:40;;;;;;;3.50;1.53;;;27.60;50.30;;;;;;5032663;28;21014;-83
2023/05/04 08:32:06;;;;;;;2.33;1.40;;;27.50;48.00;;;;;;5031087;28;20169;-83
2023/05/04 08:34:32;;;;;;;2.30;1.60;;;27.50;48.10;;;;;;5030743;28;21242;-83
2023/05/04 08:36:57;;;;;;;3.50;1.60;;;27.30;47.20;;;;;;5030572;28;20261;-83
2023/05/04 08:39:23;;;;;;;2.53;1.60;;;27.40;48.00;;;;;;5033220;28;21532;-83
2023/05/04 08:41:49;;;;;;;3.93;1.63;;;27.30;47.40;;;;;;5041994;28;20250;-83
2023/05/04 08:44:20;;;;;;;5.13;1.97;;;27.20;47.50;;;;;;5040392;28;20178;-82
2023/05/04 08:46:52;;;;;;;2.57;1.73;;;27.10;46.00;;;;;;5037744;28;20188;-83
2023/05/04 08:49:23;;;;;;;3.43;1.83;;;27.00;47.50;;;;;;5044111;28;20731;-83
2023/05/04 08:51:49;;;;;;;3.03;1.90;;;27.20;47.70;;;;;;5043524;28;20611;-83
2023/05/04 08:54:16;;;;;;;5.50;2.83;;;27.30;47.50;;;;;;5046597;28;20664;-83
2023/05/04 08:56:43;;;;;;;8.90;2.00;;;27.00;46.50;;;;;;5029888;28;20694;-83
2023/05/04 08:59:16;;;;;;;2.97;2.50;;;27.00;46.90;;;;;;5036473;28;20731;-80
2023/05/04 09:01:43;;;;;;;4.70;2.10;;;26.80;46.60;;;;;;5059702;28;20741;-82
2023/05/04 09:04:10;;;;;;;3.33;2.20;;;26.90;47.60;;;;;;5043970;28;20580;-82
2023/05/04 09:06:35;;;;;;;3.60;2.07;;;27.10;48.30;;;;;;5051120;28;20603;-83
2023/05/04 09:09:01;;;;;;;4.13;2.27;;;27.60;48.50;;;;;;5044960;28;21162;-82
2023/05/04 09:11:27;;;;;;;2.93;2.00;;;27.80;47.60;;;;;;5018624;28;20580;-80
2023/05/04 09:13:53;;;;;;;3.20;1.70;;;27.90;47.60;;;;;;5060449;28;20181;-79
2023/05/04 09:16:18;;;;;;;2.43;1.77;;;28.10;46.90;;;;;;5052158;28;20242;-80
2023/05/04 09:18:44;;;;;;;5.33;2.53;;;28.30;47.10;;;;;;5007082;28;20276;-79
2023/05/04 09:21:10;;;;;;;3.00;2.60;;;28.40;46.40;;;;;;5034193;28;20176;-80
2023/05/04 09:23:47;;;;;;;4.47;2.63;;;28.40;46.70;;;;;;5032785;28;20634;-79
2023/05/04 09:26:13;;;;;;;3.37;2.00;;;28.40;46.00;;;;;;5033453;28;20685;-80
2023/05/04 09:28:38;;;;;;;3.17;2.00;;;28.40;45.60;;;;;;5036950;28;20577;-79
2023/05/04 09:31:06;;;;;;;4.33;2.10;;;28.40;46.30;;;;;;5052358;28;20667;-81
2023/05/04 09:33:31;;;;;;;4.83;1.87;;;28.30;46.10;;;;;;5055752;28;20227;-80
2023/05/04 09:36:19;;;;;;;3.50;3.10;;;28.50;46.30;;;;;;5052104;28;20597;-81
2023/05/04 09:38:46;;;;;;;4.27;2.17;;;28.60;45.80;;;;;;5043507;28;20588;-81
2023/05/04 09:41:11;;;;;;;2.70;1.53;;;28.70;45.60;;;;;;5045915;28;20576;-81
2023/05/04 09:43:39;;;;;;;3.63;1.90;;;28.90;45.60;;;;;;5037097;28;20646;-81
2023/05/04 09:46:07;;;;;;;4.57;2.40;;;29.00;45.80;;;;;;5036594;28;20181;-81
2023/05/04 09:48:33;;;;;;;4.03;2.57;;;29.10;45.50;;;;;;5036053;28;20579;-81
2023/05/04 09:51:02;;;;;;;2.60;1.67;;;29.10;44.40;;;;;;5040360;28;20619;-81
2023/05/04 09:53:31;;;;;;;4.33;2.17;;;28.90;44.20;;;;;;5044985;28;20683;-81
2023/05/04 09:56:19;;;;;;;3.87;2.40;;;28.80;44.30;;;;;;5038637;28;20576;-81
2023/05/04 09:58:45;;;;;;;3.27;1.97;;;28.80;43.90;;;;;;5040661;28;20638;-81
2023/05/04 10:01:11;;;;;;;2.70;2.40;;;28.50;44.50;;;;;;5039040;28;20595;-81
2023/05/04 10:03:37;;;;;;;2.30;1.80;;;28.40;44.30;;;;;;5040728;28;20656;-81
2023/05/04 10:06:04;;;;;;;3.13;1.83;;;28.30;45.40;;;;;;5044566;28;20575;-81
2023/05/04 10:08:34;;;;;;;3.73;1.83;;;28.60;45.40;;;;;;5042857;28;20630;-81
2023/05/04 10:11:00;;;;;;;3.73;2.33;;;28.70;44.90;;;;;;5009046;28;20580;-81
2023/05/04 10:13:27;;;;;;;4.00;2.33;;;28.70;45.20;;;;;;5042648;28;20659;-81
2023/05/04 10:16:28;;;;;;;3.57;2.10;;;28.70;44.20;;;;;;5044156;28;20604;-81
2023/05/04 10:18:56;;;;;;;4.13;2.20;;;28.80;45.60;;;;;;4959224;28;21234;-82
2023/05/04 10:21:46;;;;;;;4.27;2.07;;;29.20;45.40;;;;;;5043017;28;20623;-82
2023/05/04 10:24:30;;;;;;;3.37;2.03;;;29.50;42.90;;;;;;5010954;28;20612;-82
2023/05/04 10:27:08;;;;;;;7.50;1.90;;;29.70;43.90;;;;;;5026748;28;20580;-82
2023/05/04 10:29:34;;;;;;;2.20;2.00;;;30.10;44.60;;;;;;5025392;28;21214;-82
2023/05/04 10:32:00;;;;;;;2.97;1.67;;;30.60;44.30;;;;;;5028326;28;20579;-82
2023/05/04 10:34:31;;;;;;;4.20;1.57;;;30.80;44.00;;;;;;5027783;28;20870;-82
2023/05/04 10:36:59;;;;;;;1.93;1.37;;;31.10;43.60;;;;;;5029062;28;20564;-82
2023/05/04 10:39:29;;;;;;;3.03;1.77;;;31.40;43.80;;;;;;5025930;28;20618;-82
2023/05/04 10:42:06;;;;;;;2.90;1.50;;;31.50;43.90;;;;;;5027694;28;20652;-82
2023/05/04 10:44:33;;;;;;;3.13;1.70;;;31.50;41.90;;;;;;5027200;28;20934;-83
2023/05/04 10:47:04;;;;;;;2.87;1.60;;;31.10;41.10;;;;;;5029724;28;20658;-82
2023/05/04 10:49:31;;;;;;;5.77;3.20;;;30.80;41.30;;;;;;5052252;28;20670;-82
2023/05/04 10:52:11;;;;;;;5.90;2.17;;;30.30;39.70;;;;;;5069479;28;20583;-82
2023/05/04 10:54:41;;;;;;;3.37;2.40;;;30.00;40.40;;;;;;5067047;28;20579;-82
2023/05/04 10:57:16;;;;;;;6.37;2.47;;;29.60;40.50;;;;;;5067462;28;20579;-82
2023/05/04 10:59:53;;;;;;;4.87;2.20;;;29.40;40.70;;;;;;5067714;28;20630;-81
2023/05/04 11:02:26;;;;;;;2.80;2.03;;;29.20;41.00;;;;;;5067410;28;20654;-81
2023/05/04 11:05:00;;;;;;;5.03;2.20;;;29.10;41.00;;;;;;5069541;28;20580;-82
2023/05/04 11:07:37;;;;;;;4.03;1.83;;;29.00;41.30;;;;;;5064650;28;20580;-81
2023/05/04 11:10:05;;;;;;;3.50;1.20;;;29.10;41.30;;;;;;5066052;28;20672;-81
2023/05/04 11:12:31;;;;;;;4.23;1.40;;;29.00;41.00;;;;;;5064741;28;20626;-82
2023/05/04 11:15:08;;;;;;;4.53;1.47;;;28.90;40.40;;;;;;5068265;28;20575;-81
2023/05/04 11:17:43;;;;;;;2.50;1.20;;;29.00;40.60;;;;;;5067979;28;20583;-82
2023/05/04 11:20:09;;;;;;;3.00;1.10;;;28.90;40.80;;;;;;5063992;28;20791;-82
2023/05/04 11:22:36;;;;;;;2.30;1.30;;;29.20;40.70;;;;;;5049764;28;20674;-82
2023/05/04 11:25:02;;;;;;;2.87;1.20;;;29.20;40.60;;;;;;5046280;28;20652;-82
2023/05/04 11:27:29;;;;;;;5.43;1.97;;;29.30;40.70;;;;;;5046193;28;20641;-82
2023/05/04 11:29:59;;;;;;;3.60;1.67;;;29.20;39.80;;;;;;5050293;28;20608;-82
2023/05/04 11:32:42;;;;;;;3.37;1.77;;;28.90;39.60;;;;;;5049844;28;20585;-82
2023/05/04 11:35:21;;;;;;;4.23;1.30;;;28.70;39.10;;;;;;5049710;28;20588;-82
2023/05/04 11:37:49;;;;;;;2.97;1.00;;;28.80;40.40;;;;;;5047798;28;20576;-82
2023/05/04 11:40:18;;;;;;;2.80;1.37;;;29.00;40.80;;;;;;5046956;28;20625;-82
2023/05/04 11:42:44;;;;;;;2.63;1.37;;;29.10;40.50;;;;;;5047296;28;20712;-82
2023/05/04 11:45:10;;;;;;;4.77;1.63;;;29.10;39.70;;;;;;5054311;28;20719;-82
2023/05/04 11:47:37;;;;;;;2.13;1.03;;;29.00;39.50;;;;;;5045121;28;20576;-82
2023/05/04 11:50:05;;;;;;;6.80;1.80;;;28.90;39.60;;;;;;5036467;28;20186;-82
2023/05/04 11:52:33;;;;;;;3.13;1.20;;;28.60;39.20;;;;;;5039052;28;20584;-82
2023/05/04 11:54:59;;;;;;;6.27;1.30;;;28.40;38.90;;;;;;5028065;28;20585;-82
2023/05/04 11:57:24;;;;;;;5.67;1.20;;;28.40;39.90;;;;;;5064213;28;20583;-82
2023/05/04 11:59:50;;;;;;;3.53;1.27;;;28.40;39.40;;;;;;5044418;28;20199;-82
2023/05/04 12:02:17;;;;;;;3.50;1.50;;;28.30;39.10;;;;;;5043829;28;20201;-82
2023/05/04 12:04:42;;;;;;;4.17;1.50;;;28.20;38.70;;;;;;5051354;28;20196;-82
2023/05/04 12:07:08;;;;;;;2.90;1.50;;;28.10;39.00;;;;;;5040863;28;20577;-82
2023/05/04 12:09:47;;;;;;;2.43;1.30;;;28.00;39.20;;;;;;5041690;28;20202;-82
2023/05/04 12:12:17;;;;;;;3.67;1.27;;;28.00;39.60;;;;;;5032992;28;20281;-81
2023/05/04 12:14:50;;;;;;;3.10;1.57;;;28.00;39.30;;;;;;5043990;28;20616;-82
2023/05/04 12:17:17;;;;;;;2.00;1.23;;;28.10;39.70;;;;;;5051977;28;20585;-82
2023/05/04 12:19:55;;;;;;;4.33;1.50;;;28.20;39.60;;;;;;5051245;28;21062;-82
2023/05/04 12:22:29;;;;;;;3.43;1.60;;;27.80;37.80;;;;;;5042578;28;20651;-81
2023/05/04 12:24:59;;;;;;;7.43;1.37;;;27.60;38.00;;;;;;5032722;28;20977;-83
2023/05/04 12:27:27;;;;;;;2.77;1.73;;;27.40;38.10;;;;;;5032211;28;20598;-82
2023/05/04 12:29:53;;;;;;;3.27;1.50;;;27.20;38.40;;;;;;5032121;28;20658;-82
2023/05/04 12:32:20;;;;;;;1.83;1.37;;;27.10;38.60;;;;;;5032191;28;21125;-81
2023/05/04 12:34:46;;;;;;;1.90;0.93;;;27.00;39.00;;;;;;5031835;28;20588;-81
2023/05/04 12:37:11;;;;;;;3.83;1.40;;;26.90;39.40;;;;;;5031635;28;20630;-81
2023/05/04 12:39:38;;;;;;;3.53;1.03;;;27.00;39.40;;;;;;5030212;28;21236;-82
2023/05/04 12:42:04;;;;;;;3.20;1.23;;;26.90;39.30;;;;;;5040130;28;20193;-81
2023/05/04 12:44:31;;;;;;;3.50;1.37;;;26.90;39.00;;;;;;5051615;28;21071;-81
2023/05/04 12:46:56;;;;;;;6.20;1.60;;;26.80;38.70;;;;;;5051775;28;20583;-81
2023/05/04 12:49:22;;;;;;;4.33;1.73;;;26.50;38.60;;;;;;5049969;28;20952;-81